Time;durP1;ratioP1;P1;durP2;ratioP2;P2;SDS_P1;SDS_P2;PMS_P1;PMS_P2;Temp;Humidity;BMP_temperature;BMP_pressure;BME280_temperature;BME280_humidity;BME280_pressure;Samples;Min_cycle;Max_cycle;Signal;HPM_P1;HPM_P2
2023/08/24 00:00:32;;;;;;;;;;;;;;;18.91;77.46;101746.16;5026431;28;19921;-60
2023/08/24 00:02:57;;;;;;;;;;;;;;;18.91;77.35;101742.66;5027811;28;20031;-60
2023/08/24 00:05:22;;;;;;;;;;;;;;;18.91;76.80;101732.09;5027034;28;19924;-60
2023/08/24 00:07:48;;;;;;;;;;;;;;;18.77;79.03;101734.66;5027112;28;19909;-60
2023/08/24 00:10:13;;;;;;;;;;;;;;;18.57;79.72;101738.09;5026470;28;19917;-60
2023/08/24 00:12:39;;;;;;;;;;;;;;;18.38;78.93;101741.50;5024488;28;19922;-60
2023/08/24 00:15:04;;;;;;;;;;;;;;;18.34;78.97;101745.88;5027140;28;19940;-60
2023/08/24 00:17:29;;;;;;;;;;;;;;;18.36;79.88;101749.38;5027260;28;19985;-60
2023/08/24 00:19:55;;;;;;;;;;;;;;;18.41;79.40;101746.81;5027015;28;20151;-60
2023/08/24 00:22:20;;;;;;;;;;;;;;;18.45;78.35;101740.69;5025611;28;19910;-60
2023/08/24 00:24:45;;;;;;;;;;;;;;;18.45;78.63;101729.22;5026921;28;19905;-59
2023/08/24 00:27:10;;;;;;;;;;;;;;;18.38;78.71;101723.03;5027033;28;19905;-60
2023/08/24 00:29:35;;;;;;;;;;;;;;;18.30;79.25;101711.56;5027071;28;19924;-60
2023/08/24 00:32:00;;;;;;;;;;;;;;;18.27;79.77;101716.81;5026779;28;19906;-60
2023/08/24 00:34:26;;;;;;;;;;;;;;;18.27;80.19;101730.00;5022469;28;19905;-60
2023/08/24 00:36:51;;;;;;;;;;;;;;;18.24;79.98;101729.09;5026778;28;19901;-60
2023/08/24 00:39:16;;;;;;;;;;;;;;;18.25;80.06;101719.44;5026929;28;20058;-60
2023/08/24 00:41:41;;;;;;;;;;;;;;;18.26;80.10;101726.47;5024998;28;19921;-60
2023/08/24 00:44:07;;;;;;;;;;;;;;;18.27;79.75;101722.09;5025939;28;19909;-60
2023/08/24 00:46:33;;;;;;;;;;;;;;;18.30;80.32;101719.47;5026593;28;20146;-60
2023/08/24 00:48:58;;;;;;;;;;;;;;;18.30;80.49;101706.28;5026648;28;19948;-59
2023/08/24 00:51:24;;;;;;;;;;;;;;;18.28;80.38;101703.63;5023815;28;19906;-60
2023/08/24 00:53:49;;;;;;;;;;;;;;;18.25;80.66;101709.78;5026673;28;20135;-60
2023/08/24 00:56:15;;;;;;;;;;;;;;;18.22;80.92;101715.03;5026628;28;19906;-60
2023/08/24 00:58:40;;;;;;;;;;;;;;;18.18;80.20;101712.38;5026554;28;20139;-60
2023/08/24 01:01:05;;;;;;;;;;;;;;;18.17;80.75;101716.75;5025072;28;19956;-60
2023/08/24 01:03:30;;;;;;;;;;;;;;;18.17;80.40;101711.47;5024881;28;19905;-60
2023/08/24 01:05:56;;;;;;;;;;;;;;;18.20;80.52;101710.63;5026007;28;20063;-60
2023/08/24 01:08:22;;;;;;;;;;;;;;;18.21;80.20;101705.34;5026393;28;20028;-60
2023/08/24 01:10:51;;;;;;;;;;;;;;;18.21;80.54;101702.72;5025157;28;20085;-60
2023/08/24 01:13:21;;;;;;;;;;;;;;;18.20;80.37;101697.44;5024766;28;20059;-60
2023/08/24 01:15:58;;;;;;;;;;;;;;;18.19;80.97;101699.19;5026234;28;19901;-60
2023/08/24 01:18:26;;;;;;;;;;;;;;;18.17;81.50;101710.59;5025948;28;20254;-60
2023/08/24 01:20:52;;;;;;;;;;;;;;;18.07;81.54;101710.56;5024883;28;19905;-60
2023/08/24 01:23:35;;;;;;;;;;;;;;;18.04;80.76;101720.19;5025063;28;19960;-60
2023/08/24 01:26:15;;;;;;;;;;;;;;;18.01;81.58;101696.44;5025865;28;19906;-60
2023/08/24 01:28:43;;;;;;;;;;;;;;;18.00;82.53;101687.66;5026411;28;19933;-60
2023/08/24 01:31:08;;;;;;;;;;;;;;;18.03;82.14;101686.75;5024494;28;19932;-60
2023/08/24 01:33:33;;;;;;;;;;;;;;;18.06;82.50;101692.97;5026237;28;20176;-60
2023/08/24 01:35:59;;;;;;;;;;;;;;;18.09;82.37;101700.00;5025724;28;19908;-60
2023/08/24 01:38:24;;;;;;;;;;;;;;;18.07;82.74;101705.28;5024661;28;19902;-60
2023/08/24 01:41:02;;;;;;;;;;;;;;;18.05;82.78;101701.72;5032807;28;19973;-60
2023/08/24 01:43:33;;;;;;;;;;;;;;;18.08;82.89;101690.31;5014035;28;20074;-60
2023/08/24 01:45:59;;;;;;;;;;;;;;;18.08;83.13;101693.84;5025533;28;19988;-60
2023/08/24 01:48:25;;;;;;;;;;;;;;;18.07;83.12;101693.81;5025620;28;20051;-60
2023/08/24 01:50:51;;;;;;;;;;;;;;;18.08;83.37;101695.59;5024920;28;19905;-60
2023/08/24 01:53:16;;;;;;;;;;;;;;;18.10;83.27;101695.59;5023547;28;19906;-60
2023/08/24 01:55:41;;;;;;;;;;;;;;;18.11;83.50;101694.75;5025355;28;19902;-60
2023/08/24 01:58:07;;;;;;;;;;;;;;;18.15;83.12;101699.16;5011786;28;19910;-60
2023/08/24 02:00:32;;;;;;;;;;;;;;;18.19;83.44;101704.47;5024897;28;19927;-60
2023/08/24 02:02:58;;;;;;;;;;;;;;;18.17;83.77;101705.31;5024387;28;19969;-59
2023/08/24 02:05:27;;;;;;;;;;;;;;;18.15;83.71;101705.31;5025050;28;20094;-60
2023/08/24 02:07:52;;;;;;;;;;;;;;;18.15;83.83;101707.97;5025467;28;19902;-60
2023/08/24 02:10:17;;;;;;;;;;;;;;;18.15;84.06;101707.09;5023862;28;19964;-60
2023/08/24 02:12:43;;;;;;;;;;;;;;;18.15;83.66;101692.13;5024959;28;19983;-59
2023/08/24 02:15:08;;;;;;;;;;;;;;;18.16;82.98;101683.34;5023583;28;19947;-60
2023/08/24 02:17:34;;;;;;;;;;;;;;;18.14;83.92;101674.53;5024082;28;20107;-60
2023/08/24 02:19:59;;;;;;;;;;;;;;;18.08;84.36;101683.28;5025254;28;20151;-59
2023/08/24 02:22:24;;;;;;;;;;;;;;;18.03;84.74;101686.75;5024994;28;20194;-60
2023/08/24 02:24:49;;;;;;;;;;;;;;;17.97;83.61;101692.88;5025030;28;20094;-60
2023/08/24 02:27:15;;;;;;;;;;;;;;;17.89;84.95;101690.16;5023382;28;19905;-60
2023/08/24 02:29:40;;;;;;;;;;;;;;;17.85;85.41;101683.09;5025375;28;19928;-60
2023/08/24 02:32:05;;;;;;;;;;;;;;;17.88;85.51;101677.84;5024906;28;19909;-59
2023/08/24 02:34:31;;;;;;;;;;;;;;;17.90;85.83;101686.69;5024871;28;19940;-60
2023/08/24 02:36:56;;;;;;;;;;;;;;;17.89;85.84;101691.94;5024286;28;20103;-60
2023/08/24 02:39:21;;;;;;;;;;;;;;;17.88;85.07;101687.53;5029220;28;19905;-60
2023/08/24 02:41:46;;;;;;;;;;;;;;;17.92;84.53;101684.06;5023124;28;19941;-60
2023/08/24 02:44:12;;;;;;;;;;;;;;;17.90;83.97;101669.97;5022360;28;20094;-60
2023/08/24 02:46:37;;;;;;;;;;;;;;;17.81;84.33;101654.94;5024083;28;20221;-60
2023/08/24 02:49:02;;;;;;;;;;;;;;;17.74;85.15;101647.88;5023890;28;19905;-60
2023/08/24 02:51:27;;;;;;;;;;;;;;;17.66;85.80;101633.78;5024549;28;19894;-60
2023/08/24 02:53:53;;;;;;;;;;;;;;;17.65;86.72;101637.28;5024356;28;20091;-59
2023/08/24 02:56:18;;;;;;;;;;;;;;;17.65;86.91;101632.88;5022792;28;19901;-60
2023/08/24 02:58:43;;;;;;;;;;;;;;;17.68;87.69;101626.75;5022721;28;19989;-60
2023/08/24 03:01:08;;;;;;;;;;;;;;;17.72;86.68;101613.59;5024651;28;19894;-60
2023/08/24 03:03:34;;;;;;;;;;;;;;;17.70;86.42;101606.56;5023098;28;19908;-60
2023/08/24 03:06:01;;;;;;;;;;;;;;;17.61;88.66;101588.06;5022515;28;20139;-61
2023/08/24 03:08:26;;;;;;;;;;;;;;;17.55;90.03;101570.44;5022718;28;19909;-60
2023/08/24 03:10:52;;;;;;;;;;;;;;;17.53;91.95;101549.34;5023709;28;19901;-60
2023/08/24 03:13:17;;;;;;;;;;;;;;;17.56;89.59;101537.97;5024468;28;19909;-60
2023/08/24 03:15:42;;;;;;;;;;;;;;;17.58;90.44;101525.66;5023113;28;19929;-60
2023/08/24 03:18:09;;;;;;;;;;;;;;;17.62;89.41;101537.13;5023205;28;19981;-60
2023/08/24 03:20:34;;;;;;;;;;;;;;;17.64;89.96;101540.63;5023188;28;19901;-61
2023/08/24 03:23:00;;;;;;;;;;;;;;;17.67;89.30;101540.63;5024157;28;19913;-60
2023/08/24 03:25:26;;;;;;;;;;;;;;;17.68;90.41;101538.03;5023587;28;20040;-60
2023/08/24 03:27:51;;;;;;;;;;;;;;;17.68;91.11;101523.97;5027284;28;20072;-60
2023/08/24 03:30:16;;;;;;;;;;;;;;;17.65;91.16;101510.78;5027694;28;20001;-60
2023/08/24 03:32:41;;;;;;;;;;;;;;;17.65;90.73;101509.00;5028080;28;19902;-60
2023/08/24 03:35:07;;;;;;;;;;;;;;;17.66;90.67;101500.22;5027835;28;19914;-60
2023/08/24 03:37:32;;;;;;;;;;;;;;;17.66;92.50;101491.47;5026483;28;19944;-60
2023/08/24 03:39:58;;;;;;;;;;;;;;;17.66;91.10;101486.19;5027212;28;20094;-60
2023/08/24 03:42:23;;;;;;;;;;;;;;;17.66;90.72;101483.56;5027876;28;19951;-60
2023/08/24 03:44:48;;;;;;;;;;;;;;;17.65;91.25;101485.28;5027481;28;19909;-60
2023/08/24 03:47:13;;;;;;;;;;;;;;;17.68;91.76;101481.78;5027252;28;20150;-60
2023/08/24 03:49:39;;;;;;;;;;;;;;;17.70;92.28;101488.84;5027721;28;19902;-60
2023/08/24 03:52:04;;;;;;;;;;;;;;;17.73;92.18;101490.63;5027488;28;19901;-60
2023/08/24 03:54:29;;;;;;;;;;;;;;;17.75;92.29;101491.50;5026928;28;19928;-60
2023/08/24 03:56:55;;;;;;;;;;;;;;;17.78;92.71;101496.78;5027246;28;20161;-60
2023/08/24 03:59:20;;;;;;;;;;;;;;;17.80;92.12;101497.69;5027346;28;19905;-60
2023/08/24 04:01:45;;;;;;;;;;;;;;;17.82;91.73;101497.69;5026705;28;19912;-61
2023/08/24 04:04:10;;;;;;;;;;;;;;;17.83;93.02;101510.88;5026032;28;20005;-60
2023/08/24 04:06:36;;;;;;;;;;;;;;;17.85;92.62;101514.38;5026957;28;19909;-60
2023/08/24 04:09:01;;;;;;;;;;;;;;;17.87;92.69;101509.09;5027824;28;20066;-60
2023/08/24 04:11:26;;;;;;;;;;;;;;;17.88;93.07;101511.75;5026773;28;19906;-60
2023/08/24 04:13:52;;;;;;;;;;;;;;;17.89;92.58;101513.50;5026492;28;19902;-60
2023/08/24 04:16:17;;;;;;;;;;;;;;;17.88;93.03;101511.75;5027246;28;20230;-61
2023/08/24 04:18:43;;;;;;;;;;;;;;;17.90;92.89;101517.97;5027090;28;19897;-61
2023/08/24 04:21:08;;;;;;;;;;;;;;;17.92;92.49;101514.47;5027233;28;19936;-61
2023/08/24 04:23:33;;;;;;;;;;;;;;;17.90;92.50;101510.06;5025419;28;20230;-60
2023/08/24 04:25:58;;;;;;;;;;;;;;;17.90;92.67;101506.50;5025862;28;19976;-60
2023/08/24 04:28:23;;;;;;;;;;;;;;;17.89;92.51;101512.66;5026798;28;19909;-60
2023/08/24 04:30:57;;;;;;;;;;;;;;;17.87;92.76;101523.19;5027091;28;19901;-60
2023/08/24 04:33:23;;;;;;;;;;;;;;;17.86;92.87;101521.41;5026938;28;19902;-60
2023/08/24 04:35:49;;;;;;;;;;;;;;;17.88;93.01;101521.41;5024093;28;19967;-60
2023/08/24 04:38:14;;;;;;;;;;;;;;;17.89;93.26;101518.78;5028591;28;20126;-60
2023/08/24 04:40:53;;;;;;;;;;;;;;;17.90;92.89;101517.97;5030830;28;20107;-60
2023/08/24 04:43:19;;;;;;;;;;;;;;;17.93;93.62;101521.47;5022952;28;19917;-60
2023/08/24 04:45:48;;;;;;;;;;;;;;;17.95;93.30;101514.47;5026043;28;19909;-60
2023/08/24 04:48:14;;;;;;;;;;;;;;;17.95;93.41;101515.34;5026605;28;19901;-60
2023/08/24 04:50:39;;;;;;;;;;;;;;;17.97;93.24;101515.34;5026685;28;19941;-60
2023/08/24 04:53:05;;;;;;;;;;;;;;;17.95;93.26;101507.41;5026518;28;19913;-60
2023/08/24 04:55:31;;;;;;;;;;;;;;;17.93;92.79;101506.56;5025229;28;19909;-60
2023/08/24 04:57:56;;;;;;;;;;;;;;;17.94;92.95;101510.06;5026332;28;19936;-60
2023/08/24 05:00:22;;;;;;;;;;;;;;;17.94;93.39;101507.41;5025905;28;19945;-60
2023/08/24 05:02:47;;;;;;;;;;;;;;;17.91;93.03;101503.00;5023446;28;19980;-60
2023/08/24 05:05:16;;;;;;;;;;;;;;;17.90;93.14;101501.22;5022534;28;20143;-61
2023/08/24 05:07:41;;;;;;;;;;;;;;;17.89;93.16;101515.28;5026234;28;20093;-60
2023/08/24 05:10:07;;;;;;;;;;;;;;;17.87;92.51;101523.19;5026166;28;20182;-60
2023/08/24 05:12:35;;;;;;;;;;;;;;;17.82;92.44;101527.53;5025638;28;19909;-60
2023/08/24 05:15:00;;;;;;;;;;;;;;;17.76;93.04;101524.88;5025761;28;19905;-60
2023/08/24 05:17:27;;;;;;;;;;;;;;;17.71;93.78;101519.59;5026052;28;20062;-60
2023/08/24 05:19:56;;;;;;;;;;;;;;;17.70;93.65;101520.47;5025875;28;19902;-60
2023/08/24 05:22:21;;;;;;;;;;;;;;;17.70;93.97;101519.59;5025463;28;19956;-60
2023/08/24 05:24:46;;;;;;;;;;;;;;;17.70;94.13;101511.69;5024858;28;19984;-60
2023/08/24 05:27:12;;;;;;;;;;;;;;;17.72;94.09;101509.94;5025142;28;19906;-60
2023/08/24 05:29:37;;;;;;;;;;;;;;;17.73;93.50;101503.78;5025986;28;19921;-60
2023/08/24 05:32:02;;;;;;;;;;;;;;;17.72;93.96;101497.63;5025882;28;19928;-60
2023/08/24 05:34:28;;;;;;;;;;;;;;;17.73;93.79;101493.25;5024789;28;19908;-60
2023/08/24 05:36:53;;;;;;;;;;;;;;;17.71;93.18;101500.25;5024727;28;20136;-60
2023/08/24 05:39:18;;;;;;;;;;;;;;;17.68;93.85;101502.88;5025456;28;20178;-60
2023/08/24 05:41:43;;;;;;;;;;;;;;;17.68;94.65;101500.25;5025679;28;19902;-60
2023/08/24 05:44:08;;;;;;;;;;;;;;;17.69;94.24;101496.75;5024951;28;19966;-59
2023/08/24 05:46:34;;;;;;;;;;;;;;;17.69;94.03;101478.28;5023828;28;19940;-60
2023/08/24 05:48:59;;;;;;;;;;;;;;;17.68;94.75;101482.69;5025177;28;19901;-60
2023/08/24 05:51:24;;;;;;;;;;;;;;;17.69;95.15;101480.94;5025957;28;19901;-60
2023/08/24 05:53:55;;;;;;;;;;;;;;;17.67;95.12;101485.28;5025541;28;19901;-60
2023/08/24 05:56:20;;;;;;;;;;;;;;;17.67;96.00;101483.56;5024705;28;19913;-60
2023/08/24 05:58:45;;;;;;;;;;;;;;;17.67;94.38;101469.47;5024831;28;19913;-60
2023/08/24 06:01:10;;;;;;;;;;;;;;;17.68;96.00;101463.34;5025148;28;19965;-60
2023/08/24 06:03:35;;;;;;;;;;;;;;;17.70;95.12;101445.81;5024153;28;19902;-60
2023/08/24 06:06:03;;;;;;;;;;;;;;;17.70;96.08;101453.69;5024516;28;19928;-60
2023/08/24 06:08:28;;;;;;;;;;;;;;;17.71;96.45;101442.25;5024713;28;19984;-60
2023/08/24 06:10:53;;;;;;;;;;;;;;;17.72;95.96;101437.00;5025168;28;19940;-60
2023/08/24 06:13:18;;;;;;;;;;;;;;;17.73;95.95;101424.72;5025214;28;19948;-60
2023/08/24 06:15:43;;;;;;;;;;;;;;;17.73;96.41;101417.69;5024529;28;20060;-60
2023/08/24 06:18:09;;;;;;;;;;;;;;;17.73;96.27;101404.50;5025228;28;20169;-60
2023/08/24 06:20:34;;;;;;;;;;;;;;;17.78;97.09;101407.16;5022955;28;19925;-60
2023/08/24 06:22:59;;;;;;;;;;;;;;;17.82;96.49;101422.09;5025016;28;19910;-60
2023/08/24 06:25:25;;;;;;;;;;;;;;;17.88;96.36;101427.38;5024901;28;20182;-60
2023/08/24 06:27:52;;;;;;;;;;;;;;;17.95;96.08;101435.34;5023608;28;20410;-60
2023/08/24 06:30:17;;;;;;;;;;;;;;;18.01;96.08;101435.38;5024709;28;20139;-60
2023/08/24 06:32:42;;;;;;;;;;;;;;;18.06;96.16;101433.59;5023187;28;20055;-60
2023/08/24 06:35:07;;;;;;;;;;;;;;;18.08;95.33;101438.00;5024744;28;19956;-60
2023/08/24 06:37:32;;;;;;;;;;;;;;;18.15;95.76;101438.03;5028915;28;20138;-60
2023/08/24 06:39:58;;;;;;;;;;;;;;;18.20;97.24;101431.00;5032443;28;19916;-60
2023/08/24 06:42:23;;;;;;;;;;;;;;;18.21;97.16;101432.78;5022233;28;20031;-60
2023/08/24 06:44:51;;;;;;;;;;;;;;;18.23;96.27;101431.91;5024213;28;20039;-60
2023/08/24 06:47:16;;;;;;;;;;;;;;;18.29;96.28;101430.13;5025066;28;19908;-60
2023/08/24 06:49:41;;;;;;;;;;;;;;;18.33;96.51;101430.13;5024653;28;19969;-60
2023/08/24 06:52:08;;;;;;;;;;;;;;;18.38;96.20;101432.81;5024516;28;19914;-61
2023/08/24 06:54:33;;;;;;;;;;;;;;;18.42;96.38;101438.06;5022254;28;19968;-60
2023/08/24 06:56:58;;;;;;;;;;;;;;;18.50;97.33;101432.78;5024253;28;19906;-60
2023/08/24 06:59:24;;;;;;;;;;;;;;;18.58;96.48;101430.13;5024357;28;20146;-60
2023/08/24 07:01:49;;;;;;;;;;;;;;;18.67;97.08;101426.63;5023068;28;19917;-60
2023/08/24 07:04:14;;;;;;;;;;;;;;;18.74;96.13;101431.00;5024463;28;19901;-60
2023/08/24 07:06:40;;;;;;;;;;;;;;;18.83;95.83;101428.38;5024401;28;19948;-60
2023/08/24 07:09:07;;;;;;;;;;;;;;;18.92;96.04;101427.50;5024586;28;20055;-60
2023/08/24 07:11:32;;;;;;;;;;;;;;;19.00;96.20;101420.47;5023071;28;19947;-60
2023/08/24 07:13:57;;;;;;;;;;;;;;;19.07;95.14;101421.31;5024046;28;19913;-60
2023/08/24 07:16:22;;;;;;;;;;;;;;;19.14;95.52;101412.50;5019952;28;19937;-60
2023/08/24 07:18:48;;;;;;;;;;;;;;;19.20;95.07;101407.19;5022259;28;19968;-60
2023/08/24 07:21:14;;;;;;;;;;;;;;;19.27;94.58;101411.56;5023605;28;19912;-60
2023/08/24 07:23:39;;;;;;;;;;;;;;;19.35;95.92;101402.72;5022899;28;19933;-61
2023/08/24 07:26:05;;;;;;;;;;;;;;;19.43;94.79;101400.94;5023872;28;20139;-61
2023/08/24 07:28:30;;;;;;;;;;;;;;;19.52;95.03;101402.66;5022094;28;20357;-61
2023/08/24 07:30:55;;;;;;;;;;;;;;;19.60;94.06;101400.88;5024250;28;19901;-60
2023/08/24 07:33:21;;;;;;;;;;;;;;;19.70;93.92;101399.94;5024080;28;19902;-61
2023/08/24 07:35:46;;;;;;;;;;;;;;;19.79;93.84;101396.41;5023418;28;19905;-60
2023/08/24 07:38:12;;;;;;;;;;;;;;;19.90;93.62;101398.97;5033785;28;20071;-60
2023/08/24 07:40:37;;;;;;;;;;;;;;;20.00;93.57;101402.44;5031959;28;20139;-60
2023/08/24 07:43:02;;;;;;;;;;;;;;;20.11;93.59;101397.94;5029179;28;19909;-60
2023/08/24 07:45:27;;;;;;;;;;;;;;;20.18;92.92;101394.38;5029471;28;20159;-60
2023/08/24 07:47:53;;;;;;;;;;;;;;;20.28;93.29;101390.75;5029902;28;19906;-61
2023/08/24 07:50:19;;;;;;;;;;;;;;;20.41;92.55;101396.84;5028545;28;19909;-60
2023/08/24 07:52:44;;;;;;;;;;;;;;;20.52;91.89;101401.16;5024107;28;19969;-60
2023/08/24 07:55:09;;;;;;;;;;;;;;;20.60;90.92;101401.97;5024189;28;19902;-60
2023/08/24 07:57:35;;;;;;;;;;;;;;;20.70;91.65;101397.47;5021118;28;19931;-61
2023/08/24 08:00:01;;;;;;;;;;;;;;;20.78;91.11;101398.28;5013702;28;20168;-61
2023/08/24 08:02:27;;;;;;;;;;;;;;;20.86;90.21;101404.41;5023722;28;19972;-60
2023/08/24 08:04:56;;;;;;;;;;;;;;;20.94;90.84;101399.91;5022054;28;20052;-60
2023/08/24 08:07:22;;;;;;;;;;;;;;;21.02;91.16;101410.41;5023776;28;19929;-61
2023/08/24 08:09:47;;;;;;;;;;;;;;;21.11;90.50;101396.19;5022130;28;20066;-60
2023/08/24 08:12:12;;;;;;;;;;;;;;;21.19;90.55;101399.63;5025692;28;20153;-61
2023/08/24 08:14:37;;;;;;;;;;;;;;;21.28;90.05;101391.56;5024025;28;19949;-61
2023/08/24 08:17:02;;;;;;;;;;;;;;;21.36;90.07;101392.34;5024639;28;19928;-61
2023/08/24 08:19:28;;;;;;;;;;;;;;;21.47;88.41;101394.00;5026884;28;19908;-60
2023/08/24 08:21:53;;;;;;;;;;;;;;;21.57;89.16;101389.50;5027196;28;19969;-60
2023/08/24 08:24:18;;;;;;;;;;;;;;;21.64;87.66;101377.91;5027590;28;20147;-61
2023/08/24 08:26:43;;;;;;;;;;;;;;;21.69;87.39;101371.59;5026316;28;19906;-60
2023/08/24 08:29:09;;;;;;;;;;;;;;;21.79;87.54;101371.47;5024789;28;19913;-61
2023/08/24 08:31:34;;;;;;;;;;;;;;;21.90;87.55;101369.56;5021430;28;19964;-60
2023/08/24 08:33:59;;;;;;;;;;;;;;;22.01;88.11;101372.03;5025724;28;19911;-60
2023/08/24 08:36:24;;;;;;;;;;;;;;;22.11;87.63;101359.50;5028002;28;19917;-62
2023/08/24 08:38:50;;;;;;;;;;;;;;;22.18;86.48;101358.50;5025033;28;19940;-61
2023/08/24 08:41:16;;;;;;;;;;;;;;;22.24;86.73;101348.63;5018511;28;19940;-61
2023/08/24 08:43:42;;;;;;;;;;;;;;;22.31;86.60;101348.56;5015331;28;19935;-61
2023/08/24 08:46:08;;;;;;;;;;;;;;;22.39;86.09;101334.28;5024882;28;20159;-61
2023/08/24 08:48:33;;;;;;;;;;;;;;;22.45;85.54;101330.63;5026712;28;19989;-61
2023/08/24 08:51:01;;;;;;;;;;;;;;;22.50;85.49;101330.53;5025419;28;20158;-61
2023/08/24 08:53:26;;;;;;;;;;;;;;;22.55;85.73;101323.34;5026485;28;19898;-61
2023/08/24 08:55:51;;;;;;;;;;;;;;;22.61;83.81;101320.59;5026756;28;19940;-61
2023/08/24 08:58:17;;;;;;;;;;;;;;;22.72;85.44;101301.78;5025588;28;19924;-61
2023/08/24 09:00:43;;;;;;;;;;;;;;;22.79;83.87;101292.78;5025538;28;19906;-61
2023/08/24 09:03:08;;;;;;;;;;;;;;;22.86;84.94;101291.75;5026455;28;20150;-61
2023/08/24 09:05:35;;;;;;;;;;;;;;;22.93;84.56;101290.72;5023981;28;19909;-61
2023/08/24 09:08:02;;;;;;;;;;;;;;;23.00;84.76;101270.22;5022941;28;19914;-61
2023/08/24 09:10:28;;;;;;;;;;;;;;;23.09;84.72;101262.03;5026428;28;19944;-61
2023/08/24 09:12:53;;;;;;;;;;;;;;;23.15;84.00;101254.88;5026214;28;19972;-61
2023/08/24 09:15:27;;;;;;;;;;;;;;;23.22;84.07;101253.84;5019981;28;20312;-61
2023/08/24 09:17:53;;;;;;;;;;;;;;;23.24;83.27;101249.34;5024095;28;19973;-61
2023/08/24 09:20:19;;;;;;;;;;;;;;;23.26;83.68;101247.53;5024292;28;19913;-61
2023/08/24 09:22:45;;;;;;;;;;;;;;;23.27;83.43;101239.53;5024261;28;19928;-61
2023/08/24 09:25:10;;;;;;;;;;;;;;;23.33;83.68;101227.84;5026025;28;19909;-61
2023/08/24 09:27:36;;;;;;;;;;;;;;;23.38;83.28;101230.41;5023760;28;19909;-61
2023/08/24 09:30:01;;;;;;;;;;;;;;;23.46;83.18;101235.53;5025348;28;19928;-61
2023/08/24 09:32:31;;;;;;;;;;;;;;;23.54;84.38;101236.25;5025624;28;19916;-60
2023/08/24 09:35:02;;;;;;;;;;;;;;;23.68;84.23;101242.09;5024679;28;19917;-61
2023/08/24 09:37:31;;;;;;;;;;;;;;;23.82;83.34;101251.53;5025248;28;20029;-61
2023/08/24 09:40:01;;;;;;;;;;;;;;;23.90;84.33;101254.91;5011570;28;19902;-61
2023/08/24 09:42:26;;;;;;;;;;;;;;;24.02;83.04;101270.56;5024058;28;19972;-60
2023/08/24 09:44:51;;;;;;;;;;;;;;;24.05;81.24;101290.91;5030089;28;19917;-61
2023/08/24 09:47:16;;;;;;;;;;;;;;;24.11;82.21;101294.28;5032613;28;19906;-60
2023/08/24 09:49:41;;;;;;;;;;;;;;;24.13;81.30;101292.44;5031725;28;19902;-61
2023/08/24 09:52:08;;;;;;;;;;;;;;;24.11;81.68;101298.72;5033955;28;19901;-61
2023/08/24 09:54:36;;;;;;;;;;;;;;;24.06;82.32;101285.53;5032204;28;19901;-61
2023/08/24 09:57:02;;;;;;;;;;;;;;;24.08;82.39;101282.81;5033481;28;19901;-61
2023/08/24 09:59:29;;;;;;;;;;;;;;;24.11;81.98;101294.28;5028547;28;19909;-61
2023/08/24 10:01:57;;;;;;;;;;;;;;;24.11;81.70;101288.97;5027238;28;19909;-61
2023/08/24 10:04:23;;;;;;;;;;;;;;;24.18;82.16;101294.13;5030638;28;20182;-61
2023/08/24 10:06:51;;;;;;;;;;;;;;;24.21;82.18;101304.69;5033506;28;19910;-60
2023/08/24 10:09:21;;;;;;;;;;;;;;;24.21;82.03;101308.22;5032068;28;19912;-61
2023/08/24 10:11:50;;;;;;;;;;;;;;;24.22;82.39;101314.44;5021535;28;20038;-61
2023/08/24 10:14:18;;;;;;;;;;;;;;;24.26;82.18;101318.75;5019584;28;19944;-61
2023/08/24 10:16:45;;;;;;;;;;;;;;;24.31;81.76;101319.50;5024761;28;20038;-61
2023/08/24 10:19:12;;;;;;;;;;;;;;;24.34;82.71;101313.22;5019267;28;20089;-61
2023/08/24 10:21:38;;;;;;;;;;;;;;;24.32;82.29;101307.94;5024925;28;19901;-61
2023/08/24 10:24:03;;;;;;;;;;;;;;;24.27;82.95;101300.09;5023250;28;19913;-61
2023/08/24 10:26:29;;;;;;;;;;;;;;;24.27;84.25;101293.88;5023423;28;19913;-61
2023/08/24 10:28:54;;;;;;;;;;;;;;;24.24;83.59;101293.94;5024807;28;19905;-61
2023/08/24 10:31:20;;;;;;;;;;;;;;;24.18;83.96;101294.13;5023114;28;19905;-61
2023/08/24 10:33:46;;;;;;;;;;;;;;;24.13;83.72;101304.91;5024634;28;19902;-61
2023/08/24 10:36:13;;;;;;;;;;;;;;;24.06;83.59;101320.13;5030345;28;19927;-61
2023/08/24 10:38:42;;;;;;;;;;;;;;;24.04;84.24;101319.31;5027568;28;19913;-61
2023/08/24 10:41:07;;;;;;;;;;;;;;;24.02;84.65;101321.13;5023914;28;19912;-61
2023/08/24 10:43:39;;;;;;;;;;;;;;;24.01;84.50;101330.03;5025170;28;19901;-61
2023/08/24 10:46:11;;;;;;;;;;;;;;;24.00;84.94;101322.06;5023462;28;19960;-61
2023/08/24 10:48:43;;;;;;;;;;;;;;;23.98;84.96;101334.56;5024437;28;19909;-61
2023/08/24 10:51:21;;;;;;;;;;;;;;;23.97;85.28;101328.38;5024498;28;19941;-61
2023/08/24 10:54:00;;;;;;;;;;;;;;;23.98;84.20;101327.44;5023320;28;19902;-61
2023/08/24 10:56:38;;;;;;;;;;;;;;;23.95;82.96;101322.19;5023582;28;19906;-61
2023/08/24 10:59:13;;;;;;;;;;;;;;;23.93;82.68;101321.38;5023373;28;20161;-61
2023/08/24 11:01:40;;;;;;;;;;;;;;;23.93;81.28;101308.06;5023359;28;20063;-61
2023/08/24 11:04:06;;;;;;;;;;;;;;;23.92;80.47;101296.50;5023238;28;19902;-61
2023/08/24 11:06:31;;;;;;;;;;;;;;;23.93;81.00;101300.06;5022142;28;19973;-61
2023/08/24 11:09:07;;;;;;;;;;;;;;;23.96;81.05;101306.19;5024253;28;19913;-61
2023/08/24 11:11:32;;;;;;;;;;;;;;;24.04;80.51;101311.34;5024254;28;19902;-61
2023/08/24 11:14:13;;;;;;;;;;;;;;;24.05;80.27;101305.06;5024334;28;19912;-61
2023/08/24 11:16:40;;;;;;;;;;;;;;;24.05;80.09;101299.75;5023959;28;19906;-61
2023/08/24 11:19:06;;;;;;;;;;;;;;;24.03;79.67;101296.25;5022829;28;20091;-61
2023/08/24 11:21:32;;;;;;;;;;;;;;;24.02;80.04;101283.84;5024315;28;19933;-61
2023/08/24 11:23:58;;;;;;;;;;;;;;;24.00;78.96;101272.38;5024277;28;20033;-61
2023/08/24 11:26:24;;;;;;;;;;;;;;;23.96;79.99;101263.59;5022363;28;19917;-61
2023/08/24 11:28:52;;;;;;;;;;;;;;;23.92;79.35;101255.72;5024252;28;20059;-61
2023/08/24 11:31:18;;;;;;;;;;;;;;;23.87;79.65;101250.53;5024271;28;19905;-61
2023/08/24 11:33:43;;;;;;;;;;;;;;;23.85;80.31;101244.31;5023989;28;19906;-61
2023/08/24 11:36:08;;;;;;;;;;;;;;;23.83;80.44;101245.28;5030343;28;19908;-61
2023/08/24 11:38:40;;;;;;;;;;;;;;;23.79;81.02;101245.34;5023661;28;19947;-61
2023/08/24 11:41:12;;;;;;;;;;;;;;;23.78;81.08;101243.63;5023683;28;20024;-61
2023/08/24 11:43:37;;;;;;;;;;;;;;;23.74;81.03;101236.63;5023827;28;19957;-61
2023/08/24 11:46:03;;;;;;;;;;;;;;;23.70;81.61;101226.97;5023513;28;19952;-61
2023/08/24 11:48:30;;;;;;;;;;;;;;;23.73;81.68;101218.91;5029833;28;19905;-61
2023/08/24 11:50:57;;;;;;;;;;;;;;;23.71;82.13;101183.50;5035457;28;19905;-61
2023/08/24 11:53:24;;;;;;;;;;;;;;;23.76;82.46;101183.38;5035529;28;20185;-61
2023/08/24 11:55:49;;;;;;;;;;;;;;;23.77;82.17;101169.16;5035457;28;19968;-61
2023/08/24 11:58:15;;;;;;;;;;;;;;;23.79;82.04;101165.50;5021281;28;19909;-61
2023/08/24 12:00:41;;;;;;;;;;;;;;;23.85;82.65;101145.00;5021791;28;19898;-60
2023/08/24 12:03:06;;;;;;;;;;;;;;;23.91;82.36;101145.75;5027563;28;19956;-61
2023/08/24 12:05:32;;;;;;;;;;;;;;;23.95;82.33;101133.22;5026171;28;19910;-61
2023/08/24 12:07:57;;;;;;;;;;;;;;;23.99;82.65;101123.38;5026414;28;20028;-60
2023/08/24 12:10:22;;;;;;;;;;;;;;;24.06;82.33;101128.47;5027407;28;19909;-60
2023/08/24 12:12:48;;;;;;;;;;;;;;;24.17;82.12;101143.25;5027453;28;20115;-61
2023/08/24 12:15:17;;;;;;;;;;;;;;;24.31;82.60;101149.06;5027290;28;20140;-60
2023/08/24 12:17:44;;;;;;;;;;;;;;;24.41;81.70;101120.38;5025709;28;19968;-61
2023/08/24 12:20:16;;;;;;;;;;;;;;;24.40;79.92;101106.16;5026828;28;19913;-60
2023/08/24 12:22:42;;;;;;;;;;;;;;;24.41;80.77;101099.06;5026945;28;19952;-61
2023/08/24 12:25:07;;;;;;;;;;;;;;;24.42;81.10;101099.03;5027073;28;19909;-60
2023/08/24 12:27:32;;;;;;;;;;;;;;;24.40;80.78;101097.31;5026904;28;19905;-60
2023/08/24 12:30:04;;;;;;;;;;;;;;;24.37;80.83;101122.25;5026604;28;19913;-60